Time;durP1;ratioP1;P1;durP2;ratioP2;P2;SDS_P1;SDS_P2;PMS_P1;PMS_P2;Temp;Humidity;BMP_temperature;BMP_pressure;BME280_temperature;BME280_humidity;BME280_pressure;Samples;Min_cycle;Max_cycle;Signal;HPM_P1;HPM_P2
2023/05/23 00:00:23;;;;;;;4.50;2.40;;;;;;;;;;5039281;28;20048;-79
2023/05/23 00:02:48;;;;;;;5.28;2.35;;;;;;;;;;5051629;28;20171;-79
2023/05/23 00:05:16;;;;;;;6.32;2.50;;;;;;;;;;5032636;28;20036;-78
2023/05/23 00:07:43;;;;;;;6.28;2.50;;;;;;;;;;5028296;28;20029;-81
2023/05/23 00:10:08;;;;;;;4.25;2.30;;;;;;;;;;5057445;28;20691;-81
2023/05/23 00:12:36;;;;;;;4.22;2.28;;;;;;;;;;5038215;28;20124;-81
2023/05/23 00:15:02;;;;;;;6.20;2.95;;;;;;;;;;5055933;28;20041;-81
2023/05/23 00:17:27;;;;;;;5.22;2.55;;;;;;;;;;5023533;28;20036;-81
2023/05/23 00:19:54;;;;;;;4.97;2.60;;;;;;;;;;5023175;28;20071;-81
2023/05/23 00:22:20;;;;;;;4.63;2.55;;;;;;;;;;5051176;28;20472;-81
2023/05/23 00:24:46;;;;;;;4.97;2.60;;;;;;;;;;5028146;28;20142;-81
2023/05/23 00:27:11;;;;;;;4.90;2.65;;;;;;;;;;5039817;28;20045;-81
2023/05/23 00:29:36;;;;;;;5.13;2.92;;;;;;;;;;5054231;28;20446;-81
2023/05/23 00:32:02;;;;;;;4.68;2.80;;;;;;;;;;5022177;28;20460;-81
2023/05/23 00:34:27;;;;;;;3.97;2.30;;;;;;;;;;5035965;28;20037;-80
2023/05/23 00:36:53;;;;;;;5.13;2.80;;;;;;;;;;5043858;28;20814;-81
2023/05/23 00:39:18;;;;;;;4.95;2.63;;;;;;;;;;5053393;28;20403;-81
2023/05/23 00:41:50;;;;;;;6.47;2.72;;;;;;;;;;5034776;28;20037;-81
2023/05/23 00:44:16;;;;;;;7.53;2.65;;;;;;;;;;5020679;28;20032;-81
2023/05/23 00:46:43;;;;;;;5.38;2.40;;;;;;;;;;5053378;28;20040;-80
2023/05/23 00:49:08;;;;;;;5.45;2.78;;;;;;;;;;5033023;28;20040;-80
2023/05/23 00:51:35;;;;;;;5.45;3.00;;;;;;;;;;5044967;28;20045;-81
2023/05/23 00:54:00;;;;;;;4.53;2.65;;;;;;;;;;5036395;28;20056;-80
2023/05/23 00:56:26;;;;;;;6.90;2.55;;;;;;;;;;5033716;28;20063;-81
2023/05/23 00:58:53;;;;;;;4.38;2.38;;;;;;;;;;5045946;28;20029;-80
2023/05/23 01:01:18;;;;;;;6.15;2.47;;;;;;;;;;5032099;28;20039;-80
2023/05/23 01:03:44;;;;;;;7.00;3.03;;;;;;;;;;5036374;28;20391;-80
2023/05/23 01:06:10;;;;;;;10.25;3.08;;;;;;;;;;5034444;28;20033;-80
2023/05/23 01:08:36;;;;;;;4.80;2.63;;;;;;;;;;5054661;28;20032;-81
2023/05/23 01:11:06;;;;;;;5.88;2.85;;;;;;;;;;5050310;28;20040;-80
2023/05/23 01:13:54;;;;;;;4.68;2.70;;;;;;;;;;5036291;28;20546;-81
2023/05/23 01:16:31;;;;;;;6.40;2.90;;;;;;;;;;5032601;28;20388;-81
2023/05/23 01:18:58;;;;;;;;;;;;;;;;;;5045018;28;20036;-81
2023/05/23 01:21:24;;;;;;;5.88;2.67;;;;;;;;;;5033742;28;20333;-80
2023/05/23 01:24:20;;;;;;;4.88;2.58;;;;;;;;;;5033383;28;20040;-80
2023/05/23 01:26:55;;;;;;;4.70;2.60;;;;;;;;;;5051354;28;20516;-80
2023/05/23 01:29:25;;;;;;;6.43;2.70;;;;;;;;;;5051137;28;20040;-80
2023/05/23 01:31:56;;;;;;;7.80;3.00;;;;;;;;;;5034995;28;20048;-80
2023/05/23 01:34:21;;;;;;;4.60;2.45;;;;;;;;;;5034135;28;20028;-80
2023/05/23 01:36:50;;;;;;;4.18;2.50;;;;;;;;;;5037958;28;20488;-80
2023/05/23 01:39:15;;;;;;;4.28;2.53;;;;;;;;;;5040474;28;20365;-79
2023/05/23 01:41:41;;;;;;;5.30;2.70;;;;;;;;;;5034066;28;20032;-80
2023/05/23 01:44:06;;;;;;;3.88;2.38;;;;;;;;;;5034404;28;20090;-80
2023/05/23 01:46:33;;;;;;;4.93;2.78;;;;;;;;;;5018432;28;20032;-80
2023/05/23 01:49:00;;;;;;;5.45;2.67;;;;;;;;;;5033704;28;20552;-80
2023/05/23 01:51:26;;;;;;;6.22;2.50;;;;;;;;;;5020790;28;20515;-81
2023/05/23 01:53:51;;;;;;;4.43;2.40;;;;;;;;;;5034650;28;20144;-80
2023/05/23 01:56:16;;;;;;;4.47;2.45;;;;;;;;;;5019691;28;20382;-80
2023/05/23 01:58:42;;;;;;;6.47;2.90;;;;;;;;;;5020878;28;20033;-80
2023/05/23 02:01:08;;;;;;;6.40;2.70;;;;;;;;;;5035172;28;20040;-81
2023/05/23 02:03:34;;;;;;;8.55;3.17;;;;;;;;;;5032590;28;20492;-80
2023/05/23 02:06:00;;;;;;;4.75;2.58;;;;;;;;;;5034062;28;20044;-80
2023/05/23 02:08:25;;;;;;;6.75;2.85;;;;;;;;;;5053390;28;20032;-81
2023/05/23 02:10:50;;;;;;;7.25;2.78;;;;;;;;;;5032440;28;20037;-81
2023/05/23 02:13:16;;;;;;;4.05;2.60;;;;;;;;;;5033336;28;20037;-81
2023/05/23 02:15:41;;;;;;;6.07;2.92;;;;;;;;;;5031013;28;20036;-79
2023/05/23 02:18:06;;;;;;;4.65;2.80;;;;;;;;;;5033952;28;20040;-81
2023/05/23 02:20:32;;;;;;;4.47;2.70;;;;;;;;;;5050181;28;20037;-81
2023/05/23 02:22:57;;;;;;;6.40;3.03;;;;;;;;;;5035070;28;20127;-80
2023/05/23 02:25:22;;;;;;;5.10;2.65;;;;;;;;;;5037837;28;20053;-81
2023/05/23 02:27:48;;;;;;;4.63;2.70;;;;;;;;;;5050158;28;20037;-80
2023/05/23 02:30:16;;;;;;;4.93;2.58;;;;;;;;;;5024251;28;20064;-80
2023/05/23 02:32:45;;;;;;;5.70;2.80;;;;;;;;;;5052475;28;20496;-79
2023/05/23 02:35:11;;;;;;;5.53;2.83;;;;;;;;;;5011851;28;20073;-80
2023/05/23 02:37:36;;;;;;;5.68;2.60;;;;;;;;;;5023602;28;20098;-80
2023/05/23 02:40:02;;;;;;;5.55;2.83;;;;;;;;;;5032378;28;20037;-80
2023/05/23 02:42:27;;;;;;;7.38;3.00;;;;;;;;;;5050519;28;20087;-80
2023/05/23 02:44:53;;;;;;;7.82;3.15;;;;;;;;;;5051880;28;20044;-80
2023/05/23 02:47:18;;;;;;;5.50;3.20;;;;;;;;;;5032430;28;20056;-81
2023/05/23 02:49:43;;;;;;;4.68;2.70;;;;;;;;;;5043587;28;20039;-80
2023/05/23 02:52:09;;;;;;;6.13;2.83;;;;;;;;;;5034027;28;20037;-81
2023/05/23 02:54:34;;;;;;;6.03;2.67;;;;;;;;;;5050082;28;20067;-81
2023/05/23 02:57:00;;;;;;;5.32;2.90;;;;;;;;;;5040194;28;20051;-81
2023/05/23 02:59:25;;;;;;;5.05;2.72;;;;;;;;;;5030966;28;20567;-81
2023/05/23 03:01:51;;;;;;;6.90;2.97;;;;;;;;;;5019613;28;20037;-80
2023/05/23 03:04:24;;;;;;;5.45;3.00;;;;;;;;;;5034162;28;20062;-80
2023/05/23 03:06:53;;;;;;;5.57;2.90;;;;;;;;;;5033579;28;20641;-80
2023/05/23 03:09:19;;;;;;;8.55;3.22;;;;;;;;;;5052273;28;20174;-80
2023/05/23 03:11:44;;;;;;;5.25;2.95;;;;;;;;;;5052514;28;20116;-81
2023/05/23 03:14:09;;;;;;;4.88;2.95;;;;;;;;;;5052844;28;20063;-79
2023/05/23 03:16:35;;;;;;;5.80;3.15;;;;;;;;;;5037351;28;20040;-80
2023/05/23 03:19:00;;;;;;;7.55;2.90;;;;;;;;;;5055154;28;20033;-80
2023/05/23 03:21:26;;;;;;;8.48;3.20;;;;;;;;;;5055661;28;20069;-81
2023/05/23 03:23:51;;;;;;;4.90;2.72;;;;;;;;;;5022561;28;20761;-81
2023/05/23 03:26:16;;;;;;;7.03;2.95;;;;;;;;;;5022196;28;20037;-80
2023/05/23 03:28:42;;;;;;;5.13;3.00;;;;;;;;;;5036203;28;20082;-81
2023/05/23 03:31:07;;;;;;;5.45;3.00;;;;;;;;;;5022510;28;20033;-81
2023/05/23 03:33:32;;;;;;;8.25;3.17;;;;;;;;;;5055590;28;20036;-80
2023/05/23 03:36:07;;;;;;;6.35;3.50;;;;;;;;;;5018459;28;20112;-80
2023/05/23 03:38:32;;;;;;;5.93;3.22;;;;;;;;;;5040857;28;20032;-80
2023/05/23 03:40:58;;;;;;;5.55;2.83;;;;;;;;;;5053766;28;20431;-80
2023/05/23 03:43:23;;;;;;;5.00;2.80;;;;;;;;;;5022106;28;20056;-80
2023/05/23 03:45:48;;;;;;;4.72;3.03;;;;;;;;;;5052758;28;20040;-80
2023/05/23 03:48:14;;;;;;;6.00;3.20;;;;;;;;;;5041189;28;20044;-80
2023/05/23 03:50:40;;;;;;;5.85;3.05;;;;;;;;;;5045051;28;20037;-79
2023/05/23 03:53:06;;;;;;;5.75;3.38;;;;;;;;;;5047321;28;20044;-80
2023/05/23 03:55:31;;;;;;;4.97;3.08;;;;;;;;;;5035649;28;20044;-80
2023/05/23 03:57:57;;;;;;;5.50;3.08;;;;;;;;;;5034807;28;20032;-80
2023/05/23 04:00:22;;;;;;;5.30;3.20;;;;;;;;;;5056346;28;20032;-80
2023/05/23 04:02:50;;;;;;;7.90;3.35;;;;;;;;;;5053545;28;20045;-80
2023/05/23 04:05:16;;;;;;;7.10;3.08;;;;;;;;;;5037281;28;20032;-80
2023/05/23 04:07:48;;;;;;;5.97;3.33;;;;;;;;;;5026189;28;20476;-81
2023/05/23 04:10:13;;;;;;;6.50;3.33;;;;;;;;;;5053136;28;20033;-82
2023/05/23 04:12:40;;;;;;;5.30;3.33;;;;;;;;;;5039615;28;20090;-82
2023/05/23 04:15:06;;;;;;;6.47;3.17;;;;;;;;;;5054843;28;20501;-82
2023/05/23 04:17:32;;;;;;;5.78;3.08;;;;;;;;;;5053312;28;20459;-82
2023/05/23 04:19:57;;;;;;;11.63;4.07;;;;;;;;;;5054408;28;20066;-82
2023/05/23 04:22:22;;;;;;;6.18;3.47;;;;;;;;;;5021409;28;20450;-82
2023/05/23 04:24:48;;;;;;;4.63;2.80;;;;;;;;;;5021122;28;20041;-82
2023/05/23 04:27:13;;;;;;;5.13;2.90;;;;;;;;;;5035112;28;20064;-80
2023/05/23 04:29:39;;;;;;;5.40;3.05;;;;;;;;;;5034748;28;20044;-80
2023/05/23 04:32:07;;;;;;;6.95;3.13;;;;;;;;;;5034715;28;20116;-81
2023/05/23 04:34:33;;;;;;;5.43;3.08;;;;;;;;;;5054168;28;20120;-81
2023/05/23 04:37:01;;;;;;;8.60;4.03;;;;;;;;;;5033889;28;20446;-81
2023/05/23 04:39:27;;;;;;;5.45;3.42;;;;;;;;;;5042540;28;20033;-80
2023/05/23 04:41:53;;;;;;;5.97;3.40;;;;;;;;;;5034732;28;20041;-81
2023/05/23 04:44:19;;;;;;;8.10;3.70;;;;;;;;;;5054582;28;20484;-82
2023/05/23 04:46:44;;;;;;;6.10;3.40;;;;;;;;;;5052125;28;20079;-80
2023/05/23 04:49:11;;;;;;;7.00;3.20;;;;;;;;;;5051523;28;20036;-80
2023/05/23 04:51:37;;;;;;;5.27;3.00;;;;;;;;;;5022919;28;20049;-81
2023/05/23 04:54:03;;;;;;;6.10;3.28;;;;;;;;;;5048964;28;20040;-81
2023/05/23 04:56:28;;;;;;;6.38;3.30;;;;;;;;;;5049292;28;20041;-81
2023/05/23 04:58:55;;;;;;;5.55;2.88;;;;;;;;;;5052977;28;20102;-80
2023/05/23 05:01:23;;;;;;;6.55;3.20;;;;;;;;;;5034394;28;20095;-81
2023/05/23 05:03:48;;;;;;;5.65;3.17;;;;;;;;;;5021299;28;20060;-81
2023/05/23 05:06:15;;;;;;;5.70;3.28;;;;;;;;;;5032629;28;20037;-81
2023/05/23 05:08:40;;;;;;;5.88;2.97;;;;;;;;;;5052376;28;20032;-80
2023/05/23 05:11:06;;;;;;;8.50;3.53;;;;;;;;;;5019397;28;20036;-81
2023/05/23 05:13:31;;;;;;;5.78;3.45;;;;;;;;;;5050427;28;20484;-81
2023/05/23 05:16:17;;;;;;;7.22;3.42;;;;;;;;;;5030171;28;20040;-81
2023/05/23 05:18:42;;;;;;;5.88;3.33;;;;;;;;;;4954400;28;20038;-80
2023/05/23 05:21:08;;;;;;;4.38;3.00;;;;;;;;;;4954737;28;20038;-81
2023/05/23 05:23:35;;;;;;;7.53;3.35;;;;;;;;;;4969629;28;20083;-82
2023/05/23 05:26:00;;;;;;;6.47;3.27;;;;;;;;;;4969222;28;25493;-80
2023/05/23 05:28:25;;;;;;;7.10;3.33;;;;;;;;;;4971514;28;20043;-81
2023/05/23 05:30:53;;;;;;;5.75;3.58;;;;;;;;;;4957893;28;20122;-81
2023/05/23 05:33:22;;;;;;;6.85;3.45;;;;;;;;;;4956058;28;20666;-81
2023/05/23 05:35:48;;;;;;;5.63;3.50;;;;;;;;;;4971932;28;20050;-80
2023/05/23 05:38:13;;;;;;;6.45;3.85;;;;;;;;;;4967669;28;20042;-79
2023/05/23 05:40:39;;;;;;;5.82;3.55;;;;;;;;;;4958254;28;20070;-81
2023/05/23 05:43:05;;;;;;;7.88;4.00;;;;;;;;;;4947575;28;20034;-81
2023/05/23 05:45:30;;;;;;;6.78;3.67;;;;;;;;;;4971101;28;20038;-81
2023/05/23 05:47:56;;;;;;;5.43;3.13;;;;;;;;;;4972737;28;20043;-80
2023/05/23 05:50:24;;;;;;;4.82;2.95;;;;;;;;;;4969214;28;20227;-80
2023/05/23 05:52:49;;;;;;;6.45;3.47;;;;;;;;;;4974123;28;20478;-80
2023/05/23 05:55:15;;;;;;;6.75;3.28;;;;;;;;;;4998060;28;20048;-79
2023/05/23 05:57:41;;;;;;;8.00;3.30;;;;;;;;;;5035590;28;20063;-78
2023/05/23 06:00:12;;;;;;;5.18;3.13;;;;;;;;;;5023482;28;20036;-81
2023/05/23 06:02:38;;;;;;;6.88;3.58;;;;;;;;;;5034480;28;20037;-81
2023/05/23 06:05:06;;;;;;;6.78;3.75;;;;;;;;;;5035389;28;20677;-80
2023/05/23 06:07:32;;;;;;;5.93;3.40;;;;;;;;;;5036527;28;20385;-79
2023/05/23 06:09:58;;;;;;;5.38;2.83;;;;;;;;;;5030967;28;20047;-81
2023/05/23 06:12:23;;;;;;;6.63;3.80;;;;;;;;;;5055315;28;20051;-79
2023/05/23 06:14:48;;;;;;;8.35;3.70;;;;;;;;;;5021116;28;20036;-79
2023/05/23 06:17:14;;;;;;;7.00;3.70;;;;;;;;;;5023874;28;20052;-80
2023/05/23 06:19:39;;;;;;;6.60;3.60;;;;;;;;;;5036713;28;20040;-80
2023/05/23 06:22:05;;;;;;;8.48;4.00;;;;;;;;;;5035963;28;20526;-81
2023/05/23 06:24:30;;;;;;;6.45;3.72;;;;;;;;;;5037001;28;20048;-80
2023/05/23 06:26:55;;;;;;;7.57;3.60;;;;;;;;;;5052605;28;20041;-81
2023/05/23 06:29:21;;;;;;;5.57;3.35;;;;;;;;;;5021874;28;20098;-80
2023/05/23 06:31:46;;;;;;;9.32;4.22;;;;;;;;;;5039056;28;20103;-81
2023/05/23 06:34:11;;;;;;;7.78;3.60;;;;;;;;;;5037997;28;20036;-81
2023/05/23 06:36:37;;;;;;;7.32;3.55;;;;;;;;;;5035640;28;20063;-81
2023/05/23 06:39:02;;;;;;;8.13;3.85;;;;;;;;;;5054647;28;20047;-82
2023/05/23 06:41:27;;;;;;;8.40;3.85;;;;;;;;;;5018487;28;20116;-81
2023/05/23 06:43:53;;;;;;;6.18;3.28;;;;;;;;;;5033453;28;20033;-80
2023/05/23 06:46:18;;;;;;;6.00;3.35;;;;;;;;;;5038029;28;20481;-80
2023/05/23 06:48:43;;;;;;;6.03;3.40;;;;;;;;;;5039612;28;20464;-80
2023/05/23 06:51:10;;;;;;;5.88;3.30;;;;;;;;;;5039604;28;20037;-81
2023/05/23 06:53:35;;;;;;;7.55;3.45;;;;;;;;;;5039166;28;20095;-81
2023/05/23 06:56:01;;;;;;;7.97;3.50;;;;;;;;;;5052239;28;20052;-81
2023/05/23 06:58:26;;;;;;;6.78;3.60;;;;;;;;;;5052844;28;20127;-81
2023/05/23 07:00:52;;;;;;;6.57;3.70;;;;;;;;;;5024515;28;20784;-81
2023/05/23 07:03:17;;;;;;;5.90;3.65;;;;;;;;;;5039918;28;20029;-80
2023/05/23 07:05:42;;;;;;;7.07;3.47;;;;;;;;;;5053138;28;20037;-80
2023/05/23 07:08:09;;;;;;;5.28;3.30;;;;;;;;;;5036246;28;20451;-81
2023/05/23 07:10:35;;;;;;;5.40;3.40;;;;;;;;;;5035488;28;20491;-81
2023/05/23 07:13:00;;;;;;;7.75;3.45;;;;;;;;;;5057090;28;20048;-81
2023/05/23 07:15:26;;;;;;;6.68;3.35;;;;;;;;;;5051554;28;20036;-81
2023/05/23 07:17:51;;;;;;;6.80;3.30;;;;;;;;;;5038628;28;20628;-81
2023/05/23 07:20:16;;;;;;;8.32;3.35;;;;;;;;;;5032489;28;20036;-81
2023/05/23 07:22:42;;;;;;;5.93;3.38;;;;;;;;;;5055798;28;20103;-80
2023/05/23 07:25:08;;;;;;;6.50;3.38;;;;;;;;;;5053073;28;20040;-81
2023/05/23 07:27:33;;;;;;;6.93;3.20;;;;;;;;;;5036650;28;20042;-81
2023/05/23 07:29:59;;;;;;;5.60;3.00;;;;;;;;;;5053880;28;20158;-81
2023/05/23 07:32:24;;;;;;;6.35;3.22;;;;;;;;;;5054069;28;20042;-82
2023/05/23 07:34:50;;;;;;;6.10;3.75;;;;;;;;;;5032531;28;20041;-81
2023/05/23 07:37:15;;;;;;;7.13;3.55;;;;;;;;;;5050487;28;20036;-81
2023/05/23 07:39:41;;;;;;;7.28;3.53;;;;;;;;;;5054348;28;20037;-79
2023/05/23 07:42:06;;;;;;;5.93;3.13;;;;;;;;;;5052167;28;20090;-81
2023/05/23 07:44:31;;;;;;;5.03;2.90;;;;;;;;;;5022050;28;20056;-82
2023/05/23 07:46:57;;;;;;;5.47;3.33;;;;;;;;;;5035763;28;20037;-82
2023/05/23 07:49:22;;;;;;;5.35;3.22;;;;;;;;;;5045160;28;20546;-81
2023/05/23 07:51:48;;;;;;;7.75;3.08;;;;;;;;;;5053316;28;20040;-81
2023/05/23 07:54:13;;;;;;;5.10;2.67;;;;;;;;;;5037015;28;20033;-81
2023/05/23 07:56:39;;;;;;;8.90;3.03;;;;;;;;;;5052576;28;20047;-81
2023/05/23 07:59:04;;;;;;;7.97;2.97;;;;;;;;;;5052153;28;20035;-80
2023/05/23 08:01:30;;;;;;;8.68;3.10;;;;;;;;;;5052031;28;20084;-81
2023/05/23 08:03:55;;;;;;;5.00;2.80;;;;;;;;;;5054032;28;20276;-82
2023/05/23 08:06:21;;;;;;;4.68;3.10;;;;;;;;;;5053535;28;20095;-80
2023/05/23 08:08:46;;;;;;;6.07;3.30;;;;;;;;;;5053583;28;20036;-81
2023/05/23 08:11:13;;;;;;;6.75;2.92;;;;;;;;;;5022469;28;20439;-79
2023/05/23 08:13:45;;;;;;;6.07;3.05;;;;;;;;;;5035696;28;20606;-80
2023/05/23 08:16:10;;;;;;;5.45;2.80;;;;;;;;;;5051077;28;20415;-81
2023/05/23 08:18:36;;;;;;;5.05;2.53;;;;;;;;;;5033392;28;20105;-81
2023/05/23 08:21:02;;;;;;;6.05;2.80;;;;;;;;;;5056103;28;20132;-80
2023/05/23 08:23:27;;;;;;;5.68;2.97;;;;;;;;;;5036317;28;20605;-80
2023/05/23 08:25:55;;;;;;;5.00;3.05;;;;;;;;;;5038598;28;20107;-80
2023/05/23 08:28:20;;;;;;;5.63;2.75;;;;;;;;;;5035777;28;20504;-79
2023/05/23 08:30:46;;;;;;;4.72;2.70;;;;;;;;;;5020170;28;20043;-84
2023/05/23 08:33:11;;;;;;;4.22;2.53;;;;;;;;;;5035439;28;20066;-83
2023/05/23 08:35:37;;;;;;;3.88;2.55;;;;;;;;;;5045061;28;20123;-85
2023/05/23 08:38:08;;;;;;;6.45;2.95;;;;;;;;;;5033892;28;20086;-86
2023/05/23 08:40:35;;;;;;;5.25;2.53;;;;;;;;;;5040428;28;20044;-87
2023/05/23 08:43:00;;;;;;;4.37;2.63;;;;;;;;;;5040982;28;20116;-87
2023/05/23 08:45:28;;;;;;;6.38;2.90;;;;;;;;;;5022492;28;20048;-87
2023/05/23 08:47:54;;;;;;;5.05;2.45;;;;;;;;;;5029627;28;20476;-87
2023/05/23 08:50:20;;;;;;;4.13;2.80;;;;;;;;;;5034010;28;20134;-87
2023/05/23 08:52:56;;;;;;;4.78;3.03;;;;;;;;;;5032749;28;20052;-87
2023/05/23 08:55:28;;;;;;;4.10;2.67;;;;;;;;;;5037565;28;20087;-82
2023/05/23 08:57:55;;;;;;;4.32;2.67;;;;;;;;;;5045892;28;20488;-82
2023/05/23 09:00:21;;;;;;;4.45;2.63;;;;;;;;;;5026334;28;20044;-79
2023/05/23 09:02:47;;;;;;;5.18;2.53;;;;;;;;;;5054578;28;20058;-80
2023/05/23 09:05:13;;;;;;;5.45;2.55;;;;;;;;;;5033192;28;20041;-80
2023/05/23 09:07:39;;;;;;;4.35;2.97;;;;;;;;;;5054703;28;20029;-81
2023/05/23 09:10:07;;;;;;;5.05;2.88;;;;;;;;;;5022619;28;20033;-82
2023/05/23 09:12:36;;;;;;;5.75;3.33;;;;;;;;;;5038546;28;20546;-80
2023/05/23 09:15:04;;;;;;;5.15;3.30;;;;;;;;;;5011621;28;20049;-82
2023/05/23 09:17:32;;;;;;;4.68;3.10;;;;;;;;;;5035011;28;20040;-82
2023/05/23 09:19:58;;;;;;;7.32;3.42;;;;;;;;;;5038628;28;20098;-82
2023/05/23 09:22:26;;;;;;;5.90;3.70;;;;;;;;;;5038659;28;20045;-83
2023/05/23 09:24:54;;;;;;;5.95;3.70;;;;;;;;;;5023620;28;20535;-81
2023/05/23 09:27:19;;;;;;;6.45;3.67;;;;;;;;;;5022245;28;20101;-82
2023/05/23 09:29:46;;;;;;;6.80;4.47;;;;;;;;;;5035404;28;20422;-81
2023/05/23 09:32:12;;;;;;;7.65;4.60;;;;;;;;;;5053266;28;20033;-82
2023/05/23 09:34:57;;;;;;;7.60;5.47;;;;;;;;;;5035048;28;20106;-82
2023/05/23 09:37:46;;;;;;;8.55;5.50;;;;;;;;;;5019181;28;20032;-81
2023/05/23 09:40:13;;;;;;;11.52;5.75;;;;;;;;;;5052290;28;20059;-81
2023/05/23 09:42:43;;;;;;;10.50;6.10;;;;;;;;;;5053495;28;20032;-83
2023/05/23 09:45:09;;;;;;;9.00;6.80;;;;;;;;;;5036855;28;20087;-82
2023/05/23 09:47:34;;;;;;;12.05;5.72;;;;;;;;;;5041377;28;21016;-82
2023/05/23 09:49:59;;;;;;;10.05;5.78;;;;;;;;;;5044165;28;20425;-83
2023/05/23 09:52:25;;;;;;;10.48;6.43;;;;;;;;;;5050812;28;20040;-81
2023/05/23 09:54:51;;;;;;;8.25;6.50;;;;;;;;;;5051127;28;20396;-81
2023/05/23 09:57:18;;;;;;;9.70;6.70;;;;;;;;;;5053495;28;20451;-81
2023/05/23 09:59:53;;;;;;;8.82;6.35;;;;;;;;;;5052296;28;20063;-81
2023/05/23 10:02:39;;;;;;;11.45;7.28;;;;;;;;;;5028532;28;20032;-82
2023/05/23 10:05:06;;;;;;;9.15;6.45;;;;;;;;;;5033984;28;20036;-82
2023/05/23 10:07:32;;;;;;;8.77;6.72;;;;;;;;;;5035556;28;20490;-82
2023/05/23 10:10:03;;;;;;;8.93;6.00;;;;;;;;;;5034549;28;20126;-84
2023/05/23 10:12:31;;;;;;;11.43;6.28;;;;;;;;;;5027009;28;20056;-82
2023/05/23 10:14:58;;;;;;;11.55;6.90;;;;;;;;;;5052562;28;20043;-81
2023/05/23 10:17:32;;;;;;;9.80;6.65;;;;;;;;;;5038451;28;20533;-82
2023/05/23 10:20:01;;;;;;;15.25;7.20;;;;;;;;;;5040079;28;20037;-82
2023/05/23 10:22:27;;;;;;;10.18;6.45;;;;;;;;;;5036861;28;20029;-81
2023/05/23 10:24:52;;;;;;;12.57;7.43;;;;;;;;;;5036795;28;20119;-81
2023/05/23 10:27:18;;;;;;;12.60;7.88;;;;;;;;;;5034696;28;20115;-81
2023/05/23 10:29:44;;;;;;;8.68;6.47;;;;;;;;;;5034642;28;20041;-80
2023/05/23 10:32:10;;;;;;;10.65;6.70;;;;;;;;;;5028297;28;20033;-81
2023/05/23 10:34:38;;;;;;;9.32;6.28;;;;;;;;;;5035262;28;20091;-81
2023/05/23 10:37:05;;;;;;;10.70;6.55;;;;;;;;;;5056854;28;20435;-81
2023/05/23 10:39:36;;;;;;;11.77;7.38;;;;;;;;;;5030111;28;20207;-82
2023/05/23 10:42:10;;;;;;;12.40;7.80;;;;;;;;;;5046161;28;20120;-81
2023/05/23 10:44:36;;;;;;;9.77;7.32;;;;;;;;;;5037354;28;20029;-80
2023/05/23 10:47:03;;;;;;;11.88;8.48;;;;;;;;;;5053587;28;20087;-81
2023/05/23 10:49:38;;;;;;;12.77;8.40;;;;;;;;;;5034978;28;20045;-81
2023/05/23 10:52:06;;;;;;;12.35;8.88;;;;;;;;;;5051916;28;20049;-81
2023/05/23 10:54:53;;;;;;;11.10;8.05;;;;;;;;;;5052110;28;20040;-80
2023/05/23 10:57:20;;;;;;;11.90;8.93;;;;;;;;;;5050669;28;20032;-81
2023/05/23 10:59:49;;;;;;;14.85;9.10;;;;;;;;;;5036949;28;20120;-80
2023/05/23 11:02:17;;;;;;;13.85;10.18;;;;;;;;;;5044835;28;20028;-80
2023/05/23 11:04:43;;;;;;;13.43;9.43;;;;;;;;;;5007425;28;20396;-81
2023/05/23 11:07:35;;;;;;;14.63;10.07;;;;;;;;;;5024197;28;20557;-80
2023/05/23 11:10:03;;;;;;;15.02;9.50;;;;;;;;;;5047476;28;20492;-81
2023/05/23 11:12:41;;;;;;;16.00;10.18;;;;;;;;;;5053660;28;20044;-80
2023/05/23 11:15:21;;;;;;;14.82;10.32;;;;;;;;;;5039823;28;20557;-80
2023/05/23 11:17:54;;;;;;;13.48;9.07;;;;;;;;;;5054181;28;20044;-81
2023/05/23 11:20:22;;;;;;;13.43;9.02;;;;;;;;;;5039945;28;20037;-82
2023/05/23 11:22:54;;;;;;;14.85;9.68;;;;;;;;;;5036020;28;20060;-81
2023/05/23 11:25:20;;;;;;;14.85;10.10;;;;;;;;;;5049251;28;20089;-81
2023/05/23 11:27:47;;;;;;;14.55;10.40;;;;;;;;;;5052077;28;20071;-80
2023/05/23 11:30:14;;;;;;;15.95;10.80;;;;;;;;;;5039133;28;20435;-80
2023/05/23 11:32:39;;;;;;;;;;;;;;;;;;5036930;28;20122;-81
2023/05/23 11:35:07;;;;;;;16.30;11.07;;;;;;;;;;5036640;28;19921;-81
2023/05/23 11:37:32;;;;;;;18.20;11.25;;;;;;;;;;5060184;28;20599;-80
2023/05/23 11:39:58;;;;;;;18.60;11.55;;;;;;;;;;5041123;28;20040;-81
2023/05/23 11:42:24;;;;;;;16.27;11.23;;;;;;;;;;5037283;28;20033;-80
2023/05/23 11:44:52;;;;;;;15.57;11.20;;;;;;;;;;5037834;28;20108;-80
2023/05/23 11:47:18;;;;;;;19.45;11.75;;;;;;;;;;5042170;28;20024;-80
2023/05/23 11:49:45;;;;;;;17.08;10.98;;;;;;;;;;5036199;28;20502;-79
2023/05/23 11:52:11;;;;;;;16.95;11.02;;;;;;;;;;5048452;28;20074;-81
2023/05/23 11:54:36;;;;;;;14.95;10.07;;;;;;;;;;5054534;28;20040;-80
2023/05/23 11:57:02;;;;;;;15.40;10.07;;;;;;;;;;5037791;28;20041;-83
2023/05/23 11:59:28;;;;;;;14.52;10.25;;;;;;;;;;5055797;28;20033;-85
2023/05/23 12:01:54;;;;;;;15.25;10.45;;;;;;;;;;5020280;28;20052;-81
2023/05/23 12:04:20;;;;;;;13.60;9.57;;;;;;;;;;5031329;28;20036;-81
2023/05/23 12:06:49;;;;;;;14.35;9.68;;;;;;;;;;5038904;28;20647;-81
2023/05/23 12:09:15;;;;;;;14.55;10.00;;;;;;;;;;5055104;28;20438;-81
2023/05/23 12:11:41;;;;;;;14.80;10.43;;;;;;;;;;5041230;28;20120;-81
2023/05/23 12:14:08;;;;;;;14.15;10.32;;;;;;;;;;5039100;28;20763;-81
2023/05/23 12:16:36;;;;;;;13.43;9.45;;;;;;;;;;5020308;28;20044;-81
2023/05/23 12:19:05;;;;;;;15.15;9.77;;;;;;;;;;5058189;28;20029;-82
2023/05/23 12:21:47;;;;;;;13.40;9.55;;;;;;;;;;5040803;28;20485;-81
2023/05/23 12:24:20;;;;;;;14.85;9.55;;;;;;;;;;5038319;28;20028;-80
2023/05/23 12:26:47;;;;;;;13.70;9.07;;;;;;;;;;5035429;28;20492;-81
2023/05/23 12:29:12;;;;;;;12.03;8.87;;;;;;;;;;5052991;28;20473;-81
2023/05/23 12:31:38;;;;;;;12.35;9.05;;;;;;;;;;5033976;28;20035;-82
2023/05/23 12:34:03;;;;;;;11.98;8.57;;;;;;;;;;5033520;28;20044;-83
2023/05/23 12:36:33;;;;;;;11.93;8.50;;;;;;;;;;5023680;28;20037;-82
2023/05/23 12:39:02;;;;;;;12.77;8.60;;;;;;;;;;5044199;28;20537;-83
2023/05/23 12:41:27;;;;;;;11.82;8.68;;;;;;;;;;5033744;28;20044;-84
2023/05/23 12:43:54;;;;;;;13.00;8.23;;;;;;;;;;5051768;28;20040;-83
2023/05/23 12:46:20;;;;;;;11.43;8.17;;;;;;;;;;5051854;28;20044;-84
2023/05/23 12:48:46;;;;;;;12.80;8.77;;;;;;;;;;5033932;28;20276;-83
2023/05/23 12:51:12;;;;;;;13.38;8.82;;;;;;;;;;5034197;28;20041;-83
2023/05/23 12:53:38;;;;;;;13.75;8.55;;;;;;;;;;5035189;28;20037;-83
2023/05/23 12:56:04;;;;;;;12.98;8.82;;;;;;;;;;5050852;28;20047;-85
2023/05/23 12:58:29;;;;;;;13.35;8.52;;;;;;;;;;5044696;28;20551;-85
2023/05/23 13:00:55;;;;;;;11.02;8.07;;;;;;;;;;5052903;28;20072;-84
2023/05/23 13:03:41;;;;;;;11.20;7.90;;;;;;;;;;5023405;28;20039;-77
2023/05/23 13:06:06;;;;;;;11.23;7.47;;;;;;;;;;4969600;28;20459;-78
2023/05/23 13:08:32;;;;;;;13.52;8.35;;;;;;;;;;4971305;28;20135;-77
2023/05/23 13:10:57;;;;;;;10.85;7.55;;;;;;;;;;4958019;28;20111;-77
2023/05/23 13:13:23;;;;;;;9.75;7.15;;;;;;;;;;4969594;28;20042;-77
2023/05/23 13:15:48;;;;;;;8.98;6.55;;;;;;;;;;4971902;28;20594;-77
2023/05/23 13:18:14;;;;;;;10.90;7.50;;;;;;;;;;4973717;28;20138;-77
2023/05/23 13:20:41;;;;;;;10.68;7.63;;;;;;;;;;4952570;28;20435;-77
2023/05/23 13:23:06;;;;;;;12.13;8.77;;;;;;;;;;4961004;28;20031;-76
2023/05/23 13:25:32;;;;;;;13.23;8.70;;;;;;;;;;4963629;28;20039;-77
2023/05/23 13:27:57;;;;;;;12.65;8.43;;;;;;;;;;4973813;28;20397;-77
2023/05/23 13:30:23;;;;;;;13.45;8.50;;;;;;;;;;4969128;28;20174;-78
2023/05/23 13:32:49;;;;;;;15.40;9.60;;;;;;;;;;4956119;28;20054;-77
2023/05/23 13:35:15;;;;;;;17.25;9.40;;;;;;;;;;4958134;28;20413;-78
2023/05/23 13:37:40;;;;;;;13.95;9.25;;;;;;;;;;4959053;28;20042;-78
2023/05/23 13:40:06;;;;;;;16.05;10.10;;;;;;;;;;4970518;28;20380;-77
2023/05/23 13:42:33;;;;;;;14.38;9.48;;;;;;;;;;4987757;28;20049;-79
2023/05/23 13:44:58;;;;;;;16.25;10.20;;;;;;;;;;5032444;28;20099;-79
2023/05/23 13:47:23;;;;;;;16.30;10.40;;;;;;;;;;5032879;28;20033;-79
2023/05/23 13:49:49;;;;;;;15.93;10.38;;;;;;;;;;5037941;28;20041;-79
2023/05/23 13:52:15;;;;;;;18.17;11.05;;;;;;;;;;5034452;28;20037;-79
2023/05/23 13:54:40;;;;;;;16.90;10.75;;;;;;;;;;5016656;28;20156;-77
2023/05/23 13:57:06;;;;;;;18.13;10.45;;;;;;;;;;5031432;28;20465;-77
2023/05/23 13:59:32;;;;;;;17.60;10.70;;;;;;;;;;5053818;28;20037;-79
2023/05/23 14:01:57;;;;;;;17.00;11.13;;;;;;;;;;5051680;28;20037;-77
2023/05/23 14:04:22;;;;;;;19.40;11.10;;;;;;;;;;5027914;28;20037;-78
2023/05/23 14:06:48;;;;;;;17.65;10.55;;;;;;;;;;5034759;28;20038;-77
2023/05/23 14:09:14;;;;;;;18.63;10.77;;;;;;;;;;5032296;28;20029;-77
2023/05/23 14:11:40;;;;;;;17.35;10.65;;;;;;;;;;5021325;28;20032;-78
2023/05/23 14:14:05;;;;;;;18.65;11.50;;;;;;;;;;5051267;28;20032;-78
2023/05/23 14:16:30;;;;;;;18.33;10.82;;;;;;;;;;5050262;28;20075;-77
2023/05/23 14:18:56;;;;;;;17.95;11.25;;;;;;;;;;5017452;28;20049;-78
2023/05/23 14:21:22;;;;;;;19.08;10.68;;;;;;;;;;5032187;28;20473;-77
2023/05/23 14:23:47;;;;;;;18.30;10.63;;;;;;;;;;5033464;28;20114;-77
2023/05/23 14:26:12;;;;;;;15.93;9.98;;;;;;;;;;5019446;28;20043;-78
2023/05/23 14:28:38;;;;;;;14.95;9.52;;;;;;;;;;5034330;28;20044;-78
2023/05/23 14:31:03;;;;;;;15.07;9.57;;;;;;;;;;5032003;28;20029;-78
2023/05/23 14:33:29;;;;;;;17.30;10.77;;;;;;;;;;5042829;28;20506;-78
2023/05/23 14:35:54;;;;;;;18.00;10.18;;;;;;;;;;5037520;28;20128;-77